Site:       
  Group:  
  From:      To:        
   
Sensor Name: Furnace      Latitude:-9.57320000 , Longitude:53.92290000
Please click on the Table Headers to view a Graph of the Observations.
TimeMax. Temp. (°C)Min. Temp. (°C)Mean Temp. (°C)Tot. Rain (mm)Mean Wind (kn)Max Gust (kn)Solar Rad. (J\cm2)Humidity (%)Atmos. Press. (mb)Temp. 5cm (°C)Temp. 10cm (°C)Temp. 20cm (°C)Temp. 30cm (°C)Temp. 50cm (°C)Temp. 100cm (°C)Grass Min. (°C)
21/09/2019 23:00:0016.00 15.90 15.90 0.50 15.70 25.50 0.00 94.90 994.40 15.30 15.20 14.90 14.90 14.60 14.60 15.30
21/09/2019 22:00:0016.00 15.90 15.90 1.10 13.20 22.50 0.00 94.70 994.90 15.30 15.20 14.90 14.90 14.60 14.60 15.40
21/09/2019 21:00:0016.00 15.90 15.90 0.40 10.80 17.80 0.00 94.50 995.40 15.30 15.30 14.90 14.80 14.60 14.60 15.30
21/09/2019 20:00:0016.00 15.90 15.90 0.70 14.50 22.20 0.00 94.20 995.60 15.40 15.30 14.90 14.80 14.60 14.60 15.30
21/09/2019 19:00:0016.00 15.90 16.00 0.40 14.80 23.90 1.00 93.60 995.50 15.50 15.40 14.90 14.80 14.60 14.60 15.30
21/09/2019 18:00:0016.10 15.90 16.00 0.20 13.70 27.60 10.10 92.80 995.80 15.60 15.50 14.80 14.70 14.60 14.60 15.50
21/09/2019 17:00:0016.50 16.00 16.30 0.30 12.10 18.90 14.50 90.80 996.10 15.70 15.50 14.70 14.60 14.60 14.60 15.60
21/09/2019 16:00:0017.30 16.50 16.90 0.40 12.10 19.70 25.20 87.30 996.60 15.70 15.50 14.60 14.50 14.60 14.60 16.30
21/09/2019 15:00:0018.30 17.30 17.80 0.00 17.80 29.80 49.10 76.60 996.70 15.60 15.40 14.40 14.40 14.60 14.60 16.90
21/09/2019 14:00:0018.40 17.90 18.10 0.00 17.70 27.00 45.00 73.70 997.10 15.50 15.20 14.20 14.30 14.60 14.60 17.10
21/09/2019 13:00:0018.70 18.10 18.40 0.00 19.00 29.20 81.80 69.30 997.10 15.20 14.80 14.10 14.20 14.60 14.60 18.00
21/09/2019 12:00:0018.10 16.90 17.50 0.00 17.10 26.00 63.90 69.70 997.80 14.80 14.50 13.90 14.20 14.60 14.60 16.60
21/09/2019 11:00:0018.10 16.80 17.50 0.00 13.70 25.00 46.20 69.10 998.60 14.60 14.20 13.70 14.10 14.70 14.60 16.50
21/09/2019 10:00:0018.20 16.50 17.40 0.00 9.10 19.10 107.60 66.40 999.60 13.90 13.50 13.70 14.10 14.70 14.60 17.80
21/09/2019 09:00:0016.80 14.90 15.90 0.00 7.80 19.70 102.70 66.40 999.70 13.10 12.90 13.70 14.20 14.70 14.60 13.90
21/09/2019 08:00:0014.90 12.60 13.80 0.00 2.90 8.20 39.30 72.10 1000.00 12.70 12.70 13.80 14.30 14.70 14.60 9.80
21/09/2019 07:00:0012.60 12.40 12.50 0.00 5.40 13.70 4.50 75.80 1000.30 12.80 12.80 14.00 14.40 14.80 14.60 9.50
21/09/2019 06:00:0013.00 12.60 12.80 0.00 11.20 19.20 0.00 75.20 1000.50 12.90 13.00 14.10 14.50 14.80 14.60 10.10
21/09/2019 05:00:0013.00 12.80 12.90 0.00 16.40 26.60 0.00 75.50 1000.90 13.00 13.10 14.20 14.60 14.80 14.60 10.60
21/09/2019 04:00:0012.90 12.50 12.70 0.00 16.00 28.50 0.00 76.20 1001.70 13.10 13.30 14.40 14.70 14.80 14.60 10.20
21/09/2019 03:00:0012.80 12.40 12.60 0.00 12.60 21.90 0.00 76.30 1003.10 13.30 13.50 14.60 14.80 14.80 14.60 9.90
21/09/2019 02:00:0012.50 12.20 12.40 0.00 8.20 19.20 0.00 76.30 1004.20 13.50 13.70 14.80 14.90 14.80 14.60 9.50
21/09/2019 01:00:0012.80 12.50 12.70 0.00 10.60 19.70 0.00 74.70 1004.90 13.80 14.00 15.00 15.00 14.80 14.60 9.80
21/09/2019 00:00:0013.20 12.60 12.90 0.00 13.20 22.20 0.00 74.10 1005.50 14.10 14.30 15.20 15.10 14.80 14.60 9.80
20/09/2019 23:00:0014.00 13.20 13.60 0.00 17.90 28.50 0.00 72.20 1005.90 -999.00 -999.00 15.60 15.20 14.80 14.60 10.90
20/09/2019 22:00:0014.60 13.90 14.30 0.00 19.40 29.10 0.00 71.20 1006.80 -999.00 -999.00 15.80 15.30 14.80 14.60 11.40